sensor_id;sensor_type;location;lat;lon;timestamp;P1;durP1;ratioP1;P2;durP2;ratioP2
1995;SDS011;38556;47.068;15.408;2022-08-19T00:01:38;214.07;;;200.97;;
1995;SDS011;38556;47.068;15.408;2022-08-19T00:04:09;216.00;;;203.10;;
1995;SDS011;38556;47.068;15.408;2022-08-19T00:06:39;208.13;;;195.67;;
1995;SDS011;38556;47.068;15.408;2022-08-19T00:09:09;209.40;;;196.80;;
1995;SDS011;38556;47.068;15.408;2022-08-19T00:11:39;212.33;;;199.33;;
1995;SDS011;38556;47.068;15.408;2022-08-19T00:14:07;207.53;;;195.13;;
1995;SDS011;38556;47.068;15.408;2022-08-19T00:16:35;215.53;;;202.43;;
1995;SDS011;38556;47.068;15.408;2022-08-19T00:19:04;209.60;;;196.70;;
1995;SDS011;38556;47.068;15.408;2022-08-19T00:21:32;212.23;;;199.63;;
1995;SDS011;38556;47.068;15.408;2022-08-19T00:24:07;208.33;;;195.30;;
1995;SDS011;38556;47.068;15.408;2022-08-19T00:26:35;220.27;;;206.77;;
1995;SDS011;38556;47.068;15.408;2022-08-19T00:29:03;220.63;;;206.73;;
1995;SDS011;38556;47.068;15.408;2022-08-19T00:31:33;217.37;;;203.90;;
1995;SDS011;38556;47.068;15.408;2022-08-19T00:34:01;211.90;;;198.80;;
1995;SDS011;38556;47.068;15.408;2022-08-19T00:36:28;210.30;;;197.40;;
1995;SDS011;38556;47.068;15.408;2022-08-19T00:38:57;205.13;;;192.53;;
1995;SDS011;38556;47.068;15.408;2022-08-19T00:41:26;200.10;;;187.40;;
1995;SDS011;38556;47.068;15.408;2022-08-19T00:43:58;193.77;;;181.47;;
1995;SDS011;38556;47.068;15.408;2022-08-19T00:46:27;203.27;;;190.83;;
1995;SDS011;38556;47.068;15.408;2022-08-19T00:48:55;196.93;;;184.63;;
1995;SDS011;38556;47.068;15.408;2022-08-19T00:51:24;199.47;;;186.97;;
1995;SDS011;38556;47.068;15.408;2022-08-19T00:53:54;208.97;;;196.17;;
1995;SDS011;38556;47.068;15.408;2022-08-19T00:56:23;202.00;;;189.30;;
1995;SDS011;38556;47.068;15.408;2022-08-19T00:58:53;198.03;;;185.17;;
1995;SDS011;38556;47.068;15.408;2022-08-19T01:01:23;194.40;;;182.40;;
1995;SDS011;38556;47.068;15.408;2022-08-19T01:03:50;195.00;;;183.00;;
1995;SDS011;38556;47.068;15.408;2022-08-19T01:06:17;205.00;;;192.43;;
1995;SDS011;38556;47.068;15.408;2022-08-19T01:08:44;200.20;;;187.70;;
1995;SDS011;38556;47.068;15.408;2022-08-19T01:11:12;206.37;;;193.67;;
1995;SDS011;38556;47.068;15.408;2022-08-19T01:13:40;208.43;;;195.80;;
1995;SDS011;38556;47.068;15.408;2022-08-19T01:16:09;215.90;;;203.00;;
1995;SDS011;38556;47.068;15.408;2022-08-19T01:18:39;206.00;;;193.03;;
1995;SDS011;38556;47.068;15.408;2022-08-19T01:21:10;203.90;;;191.50;;
1995;SDS011;38556;47.068;15.408;2022-08-19T01:23:43;205.40;;;192.87;;
1995;SDS011;38556;47.068;15.408;2022-08-19T01:26:12;197.87;;;185.83;;
1995;SDS011;38556;47.068;15.408;2022-08-19T01:28:40;202.07;;;189.77;;
1995;SDS011;38556;47.068;15.408;2022-08-19T01:31:10;203.70;;;191.23;;
1995;SDS011;38556;47.068;15.408;2022-08-19T01:33:41;214.43;;;201.63;;
1995;SDS011;38556;47.068;15.408;2022-08-19T01:36:11;214.93;;;201.63;;
1995;SDS011;38556;47.068;15.408;2022-08-19T01:38:40;215.60;;;202.40;;
1995;SDS011;38556;47.068;15.408;2022-08-19T01:41:13;213.40;;;200.60;;
1995;SDS011;38556;47.068;15.408;2022-08-19T01:43:41;215.83;;;202.37;;
1995;SDS011;38556;47.068;15.408;2022-08-19T01:46:09;210.63;;;197.87;;
1995;SDS011;38556;47.068;15.408;2022-08-19T01:48:36;216.47;;;202.93;;
1995;SDS011;38556;47.068;15.408;2022-08-19T01:51:07;217.13;;;203.70;;
1995;SDS011;38556;47.068;15.408;2022-08-19T01:53:34;219.00;;;205.90;;
1995;SDS011;38556;47.068;15.408;2022-08-19T01:56:03;218.43;;;205.23;;
1995;SDS011;38556;47.068;15.408;2022-08-19T01:58:33;221.83;;;207.97;;
1995;SDS011;38556;47.068;15.408;2022-08-19T02:01:04;216.30;;;203.00;;
1995;SDS011;38556;47.068;15.408;2022-08-19T02:03:32;207.10;;;194.30;;
1995;SDS011;38556;47.068;15.408;2022-08-19T02:06:00;231.40;;;217.50;;
1995;SDS011;38556;47.068;15.408;2022-08-19T02:08:31;247.80;;;232.20;;
1995;SDS011;38556;47.068;15.408;2022-08-19T02:10:59;243.07;;;227.77;;
1995;SDS011;38556;47.068;15.408;2022-08-19T02:13:27;250.70;;;235.50;;
1995;SDS011;38556;47.068;15.408;2022-08-19T02:15:55;253.17;;;237.83;;
1995;SDS011;38556;47.068;15.408;2022-08-19T02:18:23;253.47;;;237.97;;
1995;SDS011;38556;47.068;15.408;2022-08-19T02:20:51;255.73;;;241.00;;
1995;SDS011;38556;47.068;15.408;2022-08-19T02:23:19;255.33;;;240.73;;
1995;SDS011;38556;47.068;15.408;2022-08-19T02:25:47;244.77;;;230.60;;
1995;SDS011;38556;47.068;15.408;2022-08-19T02:28:15;248.30;;;233.70;;
1995;SDS011;38556;47.068;15.408;2022-08-19T02:30:42;244.37;;;230.60;;
1995;SDS011;38556;47.068;15.408;2022-08-19T02:33:11;243.63;;;229.43;;
1995;SDS011;38556;47.068;15.408;2022-08-19T02:35:40;247.23;;;232.40;;
1995;SDS011;38556;47.068;15.408;2022-08-19T02:38:09;246.33;;;231.93;;
1995;SDS011;38556;47.068;15.408;2022-08-19T02:40:55;246.70;;;232.50;;
1995;SDS011;38556;47.068;15.408;2022-08-19T02:43:24;240.90;;;226.30;;
1995;SDS011;38556;47.068;15.408;2022-08-19T02:45:53;242.93;;;228.10;;
1995;SDS011;38556;47.068;15.408;2022-08-19T02:48:22;245.00;;;229.93;;
1995;SDS011;38556;47.068;15.408;2022-08-19T02:50:52;243.10;;;228.37;;
1995;SDS011;38556;47.068;15.408;2022-08-19T02:53:21;249.17;;;234.07;;
1995;SDS011;38556;47.068;15.408;2022-08-19T02:55:50;262.17;;;246.70;;
1995;SDS011;38556;47.068;15.408;2022-08-19T02:58:19;247.60;;;233.30;;
1995;SDS011;38556;47.068;15.408;2022-08-19T03:00:49;246.87;;;232.77;;
1995;SDS011;38556;47.068;15.408;2022-08-19T03:03:18;244.27;;;229.90;;
1995;SDS011;38556;47.068;15.408;2022-08-19T03:05:47;253.43;;;238.37;;
1995;SDS011;38556;47.068;15.408;2022-08-19T03:08:15;254.53;;;239.53;;
1995;SDS011;38556;47.068;15.408;2022-08-19T03:10:43;248.33;;;233.43;;
1995;SDS011;38556;47.068;15.408;2022-08-19T03:13:13;243.43;;;228.93;;
1995;SDS011;38556;47.068;15.408;2022-08-19T03:15:41;245.57;;;230.90;;
1995;SDS011;38556;47.068;15.408;2022-08-19T03:18:10;236.67;;;222.80;;
1995;SDS011;38556;47.068;15.408;2022-08-19T03:20:41;256.17;;;240.70;;
1995;SDS011;38556;47.068;15.408;2022-08-19T03:23:11;250.80;;;235.80;;
1995;SDS011;38556;47.068;15.408;2022-08-19T03:25:40;244.23;;;229.40;;
1995;SDS011;38556;47.068;15.408;2022-08-19T03:28:09;243.30;;;229.07;;
1995;SDS011;38556;47.068;15.408;2022-08-19T03:30:37;240.97;;;226.87;;
1995;SDS011;38556;47.068;15.408;2022-08-19T03:33:06;240.40;;;226.23;;
1995;SDS011;38556;47.068;15.408;2022-08-19T03:35:34;246.43;;;232.10;;
1995;SDS011;38556;47.068;15.408;2022-08-19T03:38:02;246.10;;;232.30;;
1995;SDS011;38556;47.068;15.408;2022-08-19T03:40:30;246.47;;;232.37;;
1995;SDS011;38556;47.068;15.408;2022-08-19T03:43:00;253.43;;;238.73;;
1995;SDS011;38556;47.068;15.408;2022-08-19T03:45:28;249.07;;;234.40;;
1995;SDS011;38556;47.068;15.408;2022-08-19T03:47:55;261.73;;;246.43;;
1995;SDS011;38556;47.068;15.408;2022-08-19T03:50:22;257.83;;;243.53;;
1995;SDS011;38556;47.068;15.408;2022-08-19T03:52:51;249.30;;;235.50;;
1995;SDS011;38556;47.068;15.408;2022-08-19T03:55:18;259.03;;;244.80;;
1995;SDS011;38556;47.068;15.408;2022-08-19T03:57:46;254.67;;;240.30;;
1995;SDS011;38556;47.068;15.408;2022-08-19T04:00:15;263.47;;;248.87;;
1995;SDS011;38556;47.068;15.408;2022-08-19T04:02:42;257.70;;;243.03;;
1995;SDS011;38556;47.068;15.408;2022-08-19T04:05:10;255.97;;;241.50;;
1995;SDS011;38556;47.068;15.408;2022-08-19T04:07:39;268.40;;;253.20;;
1995;SDS011;38556;47.068;15.408;2022-08-19T04:10:07;267.60;;;252.63;;
1995;SDS011;38556;47.068;15.408;2022-08-19T04:12:34;269.47;;;254.30;;
1995;SDS011;38556;47.068;15.408;2022-08-19T04:15:03;267.43;;;252.43;;
1995;SDS011;38556;47.068;15.408;2022-08-19T04:17:32;265.37;;;250.33;;
1995;SDS011;38556;47.068;15.408;2022-08-19T04:19:59;253.13;;;239.03;;
1995;SDS011;38556;47.068;15.408;2022-08-19T04:22:26;268.20;;;253.40;;
1995;SDS011;38556;47.068;15.408;2022-08-19T04:24:53;266.63;;;252.40;;
1995;SDS011;38556;47.068;15.408;2022-08-19T04:27:20;267.43;;;253.17;;
1995;SDS011;38556;47.068;15.408;2022-08-19T04:29:48;252.70;;;239.00;;
1995;SDS011;38556;47.068;15.408;2022-08-19T04:32:16;258.20;;;244.20;;
1995;SDS011;38556;47.068;15.408;2022-08-19T04:34:44;260.27;;;246.20;;
1995;SDS011;38556;47.068;15.408;2022-08-19T04:37:11;253.83;;;239.73;;
1995;SDS011;38556;47.068;15.408;2022-08-19T04:39:39;261.47;;;247.07;;
1995;SDS011;38556;47.068;15.408;2022-08-19T04:42:24;247.00;;;233.50;;
1995;SDS011;38556;47.068;15.408;2022-08-19T04:45:06;246.37;;;233.07;;
1995;SDS011;38556;47.068;15.408;2022-08-19T04:47:37;251.10;;;236.93;;
1995;SDS011;38556;47.068;15.408;2022-08-19T04:50:06;255.83;;;241.80;;
1995;SDS011;38556;47.068;15.408;2022-08-19T04:52:37;265.67;;;250.77;;
1995;SDS011;38556;47.068;15.408;2022-08-19T04:55:08;266.70;;;252.50;;
1995;SDS011;38556;47.068;15.408;2022-08-19T04:57:36;274.93;;;260.13;;
1995;SDS011;38556;47.068;15.408;2022-08-19T05:00:06;278.10;;;263.30;;
1995;SDS011;38556;47.068;15.408;2022-08-19T05:02:34;272.83;;;258.33;;
1995;SDS011;38556;47.068;15.408;2022-08-19T05:05:03;275.20;;;260.23;;
1995;SDS011;38556;47.068;15.408;2022-08-19T05:07:31;275.03;;;261.03;;
1995;SDS011;38556;47.068;15.408;2022-08-19T05:09:59;275.17;;;260.70;;
1995;SDS011;38556;47.068;15.408;2022-08-19T05:12:26;269.63;;;254.80;;
1995;SDS011;38556;47.068;15.408;2022-08-19T05:14:55;261.93;;;247.70;;
1995;SDS011;38556;47.068;15.408;2022-08-19T05:17:22;263.67;;;249.57;;
1995;SDS011;38556;47.068;15.408;2022-08-19T05:19:50;271.23;;;256.47;;
1995;SDS011;38556;47.068;15.408;2022-08-19T05:22:36;275.50;;;260.53;;
1995;SDS011;38556;47.068;15.408;2022-08-19T05:25:05;267.27;;;252.07;;
1995;SDS011;38556;47.068;15.408;2022-08-19T05:27:34;262.30;;;248.00;;
1995;SDS011;38556;47.068;15.408;2022-08-19T05:30:02;264.60;;;250.37;;
1995;SDS011;38556;47.068;15.408;2022-08-19T05:32:30;247.33;;;233.37;;
1995;SDS011;38556;47.068;15.408;2022-08-19T05:34:57;245.13;;;231.33;;
1995;SDS011;38556;47.068;15.408;2022-08-19T05:37:25;248.50;;;234.43;;
1995;SDS011;38556;47.068;15.408;2022-08-19T05:39:54;247.10;;;233.50;;
1995;SDS011;38556;47.068;15.408;2022-08-19T05:42:22;241.53;;;228.17;;
1995;SDS011;38556;47.068;15.408;2022-08-19T05:44:50;246.20;;;232.83;;
1995;SDS011;38556;47.068;15.408;2022-08-19T05:47:18;259.47;;;245.37;;
1995;SDS011;38556;47.068;15.408;2022-08-19T05:49:45;261.03;;;246.37;;
1995;SDS011;38556;47.068;15.408;2022-08-19T05:52:13;248.77;;;234.80;;
1995;SDS011;38556;47.068;15.408;2022-08-19T05:54:41;249.63;;;236.23;;
1995;SDS011;38556;47.068;15.408;2022-08-19T05:57:12;253.77;;;240.07;;
1995;SDS011;38556;47.068;15.408;2022-08-19T05:59:39;268.93;;;254.53;;
1995;SDS011;38556;47.068;15.408;2022-08-19T06:02:07;274.23;;;259.73;;
1995;SDS011;38556;47.068;15.408;2022-08-19T06:04:34;261.63;;;247.23;;
1995;SDS011;38556;47.068;15.408;2022-08-19T06:07:02;256.23;;;242.27;;
1995;SDS011;38556;47.068;15.408;2022-08-19T06:09:29;255.50;;;241.30;;
1995;SDS011;38556;47.068;15.408;2022-08-19T06:11:58;249.20;;;235.17;;
1995;SDS011;38556;47.068;15.408;2022-08-19T06:14:29;248.53;;;234.47;;
1995;SDS011;38556;47.068;15.408;2022-08-19T06:16:58;263.73;;;249.33;;
1995;SDS011;38556;47.068;15.408;2022-08-19T06:19:27;243.90;;;231.00;;
1995;SDS011;38556;47.068;15.408;2022-08-19T06:21:56;247.67;;;233.80;;
1995;SDS011;38556;47.068;15.408;2022-08-19T06:24:25;242.63;;;228.93;;
1995;SDS011;38556;47.068;15.408;2022-08-19T06:26:55;256.00;;;242.23;;
1995;SDS011;38556;47.068;15.408;2022-08-19T06:29:24;242.10;;;228.70;;
1995;SDS011;38556;47.068;15.408;2022-08-19T06:31:55;251.10;;;237.40;;
1995;SDS011;38556;47.068;15.408;2022-08-19T06:34:23;246.50;;;233.00;;
1995;SDS011;38556;47.068;15.408;2022-08-19T06:36:53;247.93;;;234.53;;
1995;SDS011;38556;47.068;15.408;2022-08-19T06:39:22;245.23;;;231.70;;
1995;SDS011;38556;47.068;15.408;2022-08-19T06:41:54;250.03;;;236.33;;
1995;SDS011;38556;47.068;15.408;2022-08-19T06:44:23;238.20;;;224.70;;
1995;SDS011;38556;47.068;15.408;2022-08-19T06:46:55;245.60;;;232.40;;
1995;SDS011;38556;47.068;15.408;2022-08-19T06:49:22;241.70;;;228.63;;
1995;SDS011;38556;47.068;15.408;2022-08-19T06:51:52;249.17;;;234.83;;
1995;SDS011;38556;47.068;15.408;2022-08-19T06:54:21;239.77;;;226.50;;
1995;SDS011;38556;47.068;15.408;2022-08-19T06:56:50;244.93;;;231.40;;
1995;SDS011;38556;47.068;15.408;2022-08-19T06:59:17;247.97;;;234.30;;
1995;SDS011;38556;47.068;15.408;2022-08-19T07:01:48;250.50;;;236.70;;
1995;SDS011;38556;47.068;15.408;2022-08-19T07:04:18;256.57;;;242.27;;
1995;SDS011;38556;47.068;15.408;2022-08-19T07:06:48;239.90;;;226.53;;
1995;SDS011;38556;47.068;15.408;2022-08-19T07:09:17;241.60;;;228.00;;
1995;SDS011;38556;47.068;15.408;2022-08-19T07:11:45;234.73;;;221.47;;
1995;SDS011;38556;47.068;15.408;2022-08-19T07:14:13;238.93;;;225.83;;
1995;SDS011;38556;47.068;15.408;2022-08-19T07:16:43;243.13;;;229.80;;
1995;SDS011;38556;47.068;15.408;2022-08-19T07:19:12;242.87;;;229.77;;
1995;SDS011;38556;47.068;15.408;2022-08-19T07:21:42;245.20;;;232.10;;
1995;SDS011;38556;47.068;15.408;2022-08-19T07:24:09;247.77;;;234.93;;
1995;SDS011;38556;47.068;15.408;2022-08-19T07:26:39;243.90;;;230.80;;
1995;SDS011;38556;47.068;15.408;2022-08-19T07:29:08;254.50;;;240.73;;
1995;SDS011;38556;47.068;15.408;2022-08-19T07:31:37;261.10;;;247.40;;
1995;SDS011;38556;47.068;15.408;2022-08-19T07:34:05;252.73;;;239.27;;
1995;SDS011;38556;47.068;15.408;2022-08-19T07:36:36;246.23;;;232.90;;
1995;SDS011;38556;47.068;15.408;2022-08-19T07:39:08;252.07;;;239.00;;
1995;SDS011;38556;47.068;15.408;2022-08-19T07:41:39;253.13;;;240.03;;
1995;SDS011;38556;47.068;15.408;2022-08-19T07:44:06;253.23;;;239.67;;
1995;SDS011;38556;47.068;15.408;2022-08-19T07:46:38;248.37;;;234.97;;
1995;SDS011;38556;47.068;15.408;2022-08-19T07:49:07;253.17;;;239.87;;
1995;SDS011;38556;47.068;15.408;2022-08-19T07:51:39;265.90;;;252.00;;
1995;SDS011;38556;47.068;15.408;2022-08-19T07:54:07;259.17;;;245.70;;
1995;SDS011;38556;47.068;15.408;2022-08-19T07:56:35;256.67;;;242.77;;
1995;SDS011;38556;47.068;15.408;2022-08-19T07:59:02;263.63;;;249.63;;
1995;SDS011;38556;47.068;15.408;2022-08-19T08:01:30;249.73;;;235.73;;
1995;SDS011;38556;47.068;15.408;2022-08-19T08:03:58;243.00;;;229.80;;
1995;SDS011;38556;47.068;15.408;2022-08-19T08:06:43;248.87;;;235.50;;
1995;SDS011;38556;47.068;15.408;2022-08-19T08:09:30;261.53;;;248.13;;
1995;SDS011;38556;47.068;15.408;2022-08-19T08:12:00;253.40;;;240.20;;
1995;SDS011;38556;47.068;15.408;2022-08-19T08:14:29;263.67;;;249.63;;
1995;SDS011;38556;47.068;15.408;2022-08-19T08:16:59;263.23;;;249.50;;
1995;SDS011;38556;47.068;15.408;2022-08-19T08:19:26;245.80;;;232.43;;
1995;SDS011;38556;47.068;15.408;2022-08-19T08:21:56;269.90;;;256.00;;
1995;SDS011;38556;47.068;15.408;2022-08-19T08:24:24;240.80;;;227.33;;
1995;SDS011;38556;47.068;15.408;2022-08-19T08:26:54;238.80;;;225.67;;
1995;SDS011;38556;47.068;15.408;2022-08-19T08:29:23;242.20;;;228.90;;
1995;SDS011;38556;47.068;15.408;2022-08-19T08:31:50;242.30;;;229.40;;
1995;SDS011;38556;47.068;15.408;2022-08-19T08:34:19;250.30;;;237.40;;
1995;SDS011;38556;47.068;15.408;2022-08-19T08:36:47;256.07;;;242.97;;
1995;SDS011;38556;47.068;15.408;2022-08-19T08:39:17;269.23;;;255.63;;
1995;SDS011;38556;47.068;15.408;2022-08-19T08:41:47;251.53;;;239.13;;
1995;SDS011;38556;47.068;15.408;2022-08-19T08:44:23;251.50;;;238.67;;
1995;SDS011;38556;47.068;15.408;2022-08-19T08:46:59;238.17;;;225.97;;
1995;SDS011;38556;47.068;15.408;2022-08-19T08:49:32;256.60;;;244.20;;
1995;SDS011;38556;47.068;15.408;2022-08-19T08:52:05;237.73;;;225.97;;
1995;SDS011;38556;47.068;15.408;2022-08-19T08:54:37;263.23;;;249.93;;
1995;SDS011;38556;47.068;15.408;2022-08-19T08:57:07;256.40;;;243.60;;
1995;SDS011;38556;47.068;15.408;2022-08-19T08:59:41;267.10;;;253.53;;
1995;SDS011;38556;47.068;15.408;2022-08-19T09:02:11;252.07;;;238.87;;
1995;SDS011;38556;47.068;15.408;2022-08-19T09:04:39;255.00;;;241.67;;
1995;SDS011;38556;47.068;15.408;2022-08-19T09:07:10;266.13;;;252.67;;
1995;SDS011;38556;47.068;15.408;2022-08-19T09:09:49;251.23;;;238.30;;
1995;SDS011;38556;47.068;15.408;2022-08-19T09:12:20;254.33;;;240.53;;
1995;SDS011;38556;47.068;15.408;2022-08-19T09:14:59;260.80;;;247.37;;
1995;SDS011;38556;47.068;15.408;2022-08-19T09:17:31;279.77;;;265.87;;
1995;SDS011;38556;47.068;15.408;2022-08-19T09:20:00;250.53;;;237.73;;
1995;SDS011;38556;47.068;15.408;2022-08-19T09:22:33;260.87;;;247.23;;
1995;SDS011;38556;47.068;15.408;2022-08-19T09:25:02;254.87;;;241.97;;
1995;SDS011;38556;47.068;15.408;2022-08-19T09:27:30;284.10;;;270.00;;
1995;SDS011;38556;47.068;15.408;2022-08-19T09:29:58;246.80;;;234.10;;
1995;SDS011;38556;47.068;15.408;2022-08-19T09:32:26;240.97;;;228.20;;
1995;SDS011;38556;47.068;15.408;2022-08-19T09:34:53;249.10;;;236.80;;
1995;SDS011;38556;47.068;15.408;2022-08-19T09:37:23;246.53;;;233.93;;
1995;SDS011;38556;47.068;15.408;2022-08-19T09:39:50;239.63;;;227.47;;
1995;SDS011;38556;47.068;15.408;2022-08-19T09:42:19;239.73;;;227.93;;
1995;SDS011;38556;47.068;15.408;2022-08-19T09:44:46;260.50;;;247.83;;
1995;SDS011;38556;47.068;15.408;2022-08-19T09:47:15;258.80;;;245.40;;
1995;SDS011;38556;47.068;15.408;2022-08-19T09:49:42;253.67;;;240.57;;
1995;SDS011;38556;47.068;15.408;2022-08-19T09:52:10;245.00;;;232.70;;
1995;SDS011;38556;47.068;15.408;2022-08-19T09:54:38;241.80;;;229.30;;
1995;SDS011;38556;47.068;15.408;2022-08-19T09:57:06;246.83;;;234.33;;
1995;SDS011;38556;47.068;15.408;2022-08-19T09:59:33;236.80;;;224.40;;
1995;SDS011;38556;47.068;15.408;2022-08-19T10:02:00;234.93;;;222.63;;
1995;SDS011;38556;47.068;15.408;2022-08-19T10:04:29;248.20;;;235.60;;
1995;SDS011;38556;47.068;15.408;2022-08-19T10:07:10;221.50;;;209.70;;
1995;SDS011;38556;47.068;15.408;2022-08-19T10:09:38;224.43;;;212.63;;
1995;SDS011;38556;47.068;15.408;2022-08-19T10:12:06;249.10;;;236.10;;
1995;SDS011;38556;47.068;15.408;2022-08-19T10:14:35;242.20;;;229.10;;
1995;SDS011;38556;47.068;15.408;2022-08-19T10:17:02;242.70;;;229.73;;
1995;SDS011;38556;47.068;15.408;2022-08-19T10:19:31;257.70;;;243.90;;
1995;SDS011;38556;47.068;15.408;2022-08-19T10:22:04;236.77;;;224.27;;
1995;SDS011;38556;47.068;15.408;2022-08-19T10:24:33;246.87;;;233.70;;
1995;SDS011;38556;47.068;15.408;2022-08-19T10:27:00;249.03;;;236.07;;
1995;SDS011;38556;47.068;15.408;2022-08-19T10:29:29;225.17;;;212.63;;
1995;SDS011;38556;47.068;15.408;2022-08-19T10:31:59;257.87;;;244.37;;
1995;SDS011;38556;47.068;15.408;2022-08-19T10:34:28;247.10;;;233.50;;
1995;SDS011;38556;47.068;15.408;2022-08-19T10:36:58;245.40;;;232.50;;
1995;SDS011;38556;47.068;15.408;2022-08-19T10:39:26;240.83;;;227.73;;
1995;SDS011;38556;47.068;15.408;2022-08-19T10:41:54;247.27;;;234.07;;
1995;SDS011;38556;47.068;15.408;2022-08-19T10:44:23;243.93;;;230.27;;
1995;SDS011;38556;47.068;15.408;2022-08-19T10:46:52;232.10;;;219.77;;
1995;SDS011;38556;47.068;15.408;2022-08-19T10:49:19;227.90;;;215.33;;
1995;SDS011;38556;47.068;15.408;2022-08-19T10:51:46;227.27;;;214.87;;
1995;SDS011;38556;47.068;15.408;2022-08-19T10:54:32;240.10;;;227.03;;
1995;SDS011;38556;47.068;15.408;2022-08-19T10:57:14;243.43;;;230.40;;
1995;SDS011;38556;47.068;15.408;2022-08-19T10:59:42;262.63;;;248.57;;
1995;SDS011;38556;47.068;15.408;2022-08-19T11:02:10;250.10;;;237.00;;
1995;SDS011;38556;47.068;15.408;2022-08-19T11:04:39;226.53;;;214.10;;
1995;SDS011;38556;47.068;15.408;2022-08-19T11:07:07;250.90;;;238.10;;
1995;SDS011;38556;47.068;15.408;2022-08-19T11:09:38;223.80;;;211.20;;
1995;SDS011;38556;47.068;15.408;2022-08-19T11:12:07;254.57;;;241.37;;
1995;SDS011;38556;47.068;15.408;2022-08-19T11:14:38;239.77;;;226.83;;
1995;SDS011;38556;47.068;15.408;2022-08-19T11:17:05;243.93;;;230.67;;
1995;SDS011;38556;47.068;15.408;2022-08-19T11:19:33;246.07;;;232.57;;
1995;SDS011;38556;47.068;15.408;2022-08-19T11:22:01;232.50;;;219.67;;
1995;SDS011;38556;47.068;15.408;2022-08-19T11:24:29;227.30;;;214.47;;
1995;SDS011;38556;47.068;15.408;2022-08-19T11:27:01;223.67;;;211.43;;
1995;SDS011;38556;47.068;15.408;2022-08-19T11:29:31;248.73;;;235.53;;
1995;SDS011;38556;47.068;15.408;2022-08-19T11:31:59;231.13;;;218.47;;
1995;SDS011;38556;47.068;15.408;2022-08-19T11:34:30;230.80;;;218.00;;
1995;SDS011;38556;47.068;15.408;2022-08-19T11:36:57;239.73;;;226.37;;
1995;SDS011;38556;47.068;15.408;2022-08-19T11:39:26;235.40;;;221.77;;
1995;SDS011;38556;47.068;15.408;2022-08-19T11:41:55;255.50;;;241.20;;
1995;SDS011;38556;47.068;15.408;2022-08-19T11:44:26;237.67;;;223.27;;
1995;SDS011;38556;47.068;15.408;2022-08-19T11:46:55;262.00;;;245.50;;
1995;SDS011;38556;47.068;15.408;2022-08-19T11:49:23;248.70;;;234.60;;
1995;SDS011;38556;47.068;15.408;2022-08-19T11:51:50;239.40;;;225.70;;
1995;SDS011;38556;47.068;15.408;2022-08-19T11:54:19;243.73;;;229.93;;
1995;SDS011;38556;47.068;15.408;2022-08-19T11:56:46;239.20;;;225.60;;
1995;SDS011;38556;47.068;15.408;2022-08-19T11:59:14;240.53;;;226.90;;
1995;SDS011;38556;47.068;15.408;2022-08-19T12:01:43;246.97;;;232.67;;
1995;SDS011;38556;47.068;15.408;2022-08-19T12:04:12;238.57;;;224.90;;
1995;SDS011;38556;47.068;15.408;2022-08-19T12:06:39;238.03;;;224.23;;
1995;SDS011;38556;47.068;15.408;2022-08-19T12:09:08;238.57;;;224.63;;
1995;SDS011;38556;47.068;15.408;2022-08-19T12:11:36;244.83;;;231.03;;
1995;SDS011;38556;47.068;15.408;2022-08-19T12:14:05;245.40;;;231.90;;
1995;SDS011;38556;47.068;15.408;2022-08-19T12:16:32;252.50;;;238.40;;
1995;SDS011;38556;47.068;15.408;2022-08-19T12:19:03;257.70;;;243.90;;
1995;SDS011;38556;47.068;15.408;2022-08-19T12:21:31;242.23;;;228.50;;
1995;SDS011;38556;47.068;15.408;2022-08-19T12:24:01;243.67;;;230.37;;
1995;SDS011;38556;47.068;15.408;2022-08-19T12:26:29;241.77;;;228.10;;
1995;SDS011;38556;47.068;15.408;2022-08-19T12:28:58;253.93;;;239.97;;
1995;SDS011;38556;47.068;15.408;2022-08-19T12:31:25;237.77;;;224.20;;
1995;SDS011;38556;47.068;15.408;2022-08-19T12:33:54;230.80;;;217.73;;
1995;SDS011;38556;47.068;15.408;2022-08-19T12:36:23;239.43;;;226.27;;
1995;SDS011;38556;47.068;15.408;2022-08-19T12:38:51;231.80;;;219.33;;
1995;SDS011;38556;47.068;15.408;2022-08-19T12:41:18;234.97;;;221.57;;
1995;SDS011;38556;47.068;15.408;2022-08-19T12:43:48;234.80;;;221.60;;
1995;SDS011;38556;47.068;15.408;2022-08-19T12:46:15;227.43;;;214.10;;
1995;SDS011;38556;47.068;15.408;2022-08-19T12:48:44;223.87;;;210.77;;
1995;SDS011;38556;47.068;15.408;2022-08-19T12:51:12;227.33;;;214.03;;
1995;SDS011;38556;47.068;15.408;2022-08-19T12:53:43;234.30;;;220.50;;
1995;SDS011;38556;47.068;15.408;2022-08-19T12:56:10;244.03;;;230.63;;
1995;SDS011;38556;47.068;15.408;2022-08-19T12:58:40;235.03;;;221.43;;
1995;SDS011;38556;47.068;15.408;2022-08-19T13:01:09;241.70;;;228.03;;
1995;SDS011;38556;47.068;15.408;2022-08-19T13:03:37;232.80;;;219.27;;
1995;SDS011;38556;47.068;15.408;2022-08-19T13:06:06;228.93;;;216.43;;
1995;SDS011;38556;47.068;15.408;2022-08-19T13:08:34;233.90;;;219.93;;
1995;SDS011;38556;47.068;15.408;2022-08-19T13:11:10;228.40;;;215.20;;
1995;SDS011;38556;47.068;15.408;2022-08-19T13:13:40;233.70;;;220.23;;
1995;SDS011;38556;47.068;15.408;2022-08-19T13:16:09;229.93;;;216.23;;
1995;SDS011;38556;47.068;15.408;2022-08-19T13:18:38;234.20;;;221.43;;
1995;SDS011;38556;47.068;15.408;2022-08-19T13:21:07;225.57;;;212.77;;
1995;SDS011;38556;47.068;15.408;2022-08-19T13:23:37;230.20;;;217.00;;
1995;SDS011;38556;47.068;15.408;2022-08-19T13:26:05;222.77;;;210.07;;
1995;SDS011;38556;47.068;15.408;2022-08-19T13:28:35;238.83;;;225.93;;
1995;SDS011;38556;47.068;15.408;2022-08-19T13:31:21;238.63;;;224.83;;
1995;SDS011;38556;47.068;15.408;2022-08-19T13:34:07;226.47;;;213.07;;
1995;SDS011;38556;47.068;15.408;2022-08-19T13:36:35;248.73;;;235.03;;
1995;SDS011;38556;47.068;15.408;2022-08-19T13:39:04;243.27;;;229.07;;
1995;SDS011;38556;47.068;15.408;2022-08-19T13:41:33;230.57;;;217.30;;
1995;SDS011;38556;47.068;15.408;2022-08-19T13:44:03;232.80;;;219.00;;
1995;SDS011;38556;47.068;15.408;2022-08-19T13:46:31;238.47;;;224.37;;
1995;SDS011;38556;47.068;15.408;2022-08-19T13:48:59;227.43;;;213.77;;
1995;SDS011;38556;47.068;15.408;2022-08-19T13:51:27;233.70;;;219.77;;
1995;SDS011;38556;47.068;15.408;2022-08-19T13:53:54;234.53;;;220.83;;
1995;SDS011;38556;47.068;15.408;2022-08-19T13:56:22;237.80;;;223.67;;
1995;SDS011;38556;47.068;15.408;2022-08-19T13:58:49;231.17;;;217.67;;
1995;SDS011;38556;47.068;15.408;2022-08-19T14:01:20;249.10;;;234.57;;
1995;SDS011;38556;47.068;15.408;2022-08-19T14:03:48;253.90;;;239.30;;
1995;SDS011;38556;47.068;15.408;2022-08-19T14:06:15;260.97;;;246.43;;
1995;SDS011;38556;47.068;15.408;2022-08-19T14:08:43;238.93;;;225.33;;